Time;durP1;ratioP1;P1;durP2;ratioP2;P2;SDS_P1;SDS_P2;PMS_P1;PMS_P2;Temp;Humidity;BMP_temperature;BMP_pressure;BME280_temperature;BME280_humidity;BME280_pressure;Samples;Min_cycle;Max_cycle;Signal;HPM_P1;HPM_P2
2023/08/02 00:01:06;;;;;;;1.25;0.75;;;;;;;26.97;45.11;100052.78;4939868;28;97801;-76
2023/08/02 00:03:33;;;;;;;1.42;1.00;;;;;;;26.96;45.27;100046.41;4951137;28;96752;-76
2023/08/02 00:06:00;;;;;;;1.02;0.70;;;;;;;26.96;45.12;100038.16;4923030;28;99492;-76
2023/08/02 00:08:28;;;;;;;1.13;0.80;;;;;;;26.97;45.28;100041.75;4938180;28;97570;-76
2023/08/02 00:10:55;;;;;;;1.02;0.73;;;;;;;26.97;45.15;100030.72;4954146;28;96898;-76
2023/08/02 00:13:22;;;;;;;1.70;0.80;;;;;;;26.96;45.09;100016.09;4943669;28;98734;-76
2023/08/02 00:15:50;;;;;;;1.17;0.65;;;;;;;26.96;45.33;100007.84;4932811;28;99672;-76
2023/08/02 00:18:17;;;;;;;0.95;0.70;;;;;;;26.94;45.19;100010.00;4939811;28;96726;-76
2023/08/02 00:20:44;;;;;;;1.27;0.70;;;;;;;26.96;45.13;100015.28;4943470;28;96792;-77
2023/08/02 00:23:11;;;;;;;1.27;0.70;;;;;;;26.95;45.23;100017.19;4944504;28;96603;-76
2023/08/02 00:25:39;;;;;;;1.20;0.73;;;;;;;26.95;45.34;100017.19;4942768;28;96669;-76
2023/08/02 00:28:05;;;;;;;1.00;0.60;;;;;;;26.95;45.00;100024.63;4930233;28;97517;-76
2023/08/02 00:30:43;;;;;;;0.93;0.60;;;;;;;26.95;45.21;100022.69;4931721;28;96794;-76
2023/08/02 00:33:10;;;;;;;1.55;0.90;;;;;;;26.94;45.00;100032.03;4954580;28;98765;-76
2023/08/02 00:35:42;;;;;;;1.10;0.80;;;;;;;26.95;45.19;100032.88;4961228;28;101224;-76
2023/08/02 00:38:09;;;;;;;0.98;0.65;;;;;;;26.95;45.33;100032.88;4939691;28;97303;-76
2023/08/02 00:40:37;;;;;;;1.02;0.70;;;;;;;26.95;45.16;100032.88;4930222;28;97564;-76
2023/08/02 00:43:03;;;;;;;1.30;0.80;;;;;;;26.93;45.02;100030.34;4947579;28;97431;-76
2023/08/02 00:45:30;;;;;;;1.00;0.60;;;;;;;26.95;45.06;100027.38;4934913;28;96736;-76
2023/08/02 00:47:57;;;;;;;1.15;0.70;;;;;;;26.94;45.35;100018.25;4945878;28;97306;-76
2023/08/02 00:50:27;;;;;;;1.05;0.70;;;;;;;26.95;45.22;100027.38;4948584;28;97027;-76
2023/08/02 00:52:55;;;;;;;1.08;0.68;;;;;;;26.94;45.13;100014.66;4947625;28;98722;-76
2023/08/02 00:55:21;;;;;;;1.20;0.82;;;;;;;26.93;45.02;100002.81;4950252;28;98318;-76
2023/08/02 00:57:49;;;;;;;1.02;0.70;;;;;;;26.94;45.14;100000.88;4958250;28;96637;-76
2023/08/02 01:00:16;;;;;;;2.53;0.85;;;;;;;26.93;44.94;100002.81;4961926;28;97448;-76
2023/08/02 01:02:42;;;;;;;1.08;0.57;;;;;;;26.93;45.11;99991.78;4944701;28;96861;-76
2023/08/02 01:05:12;;;;;;;0.63;0.57;;;;;;;26.94;45.13;99989.88;4945932;28;97387;-76
2023/08/02 01:08:00;;;;;;;1.23;0.90;;;;;;;26.94;45.10;99998.13;4958098;28;96680;-76
2023/08/02 01:11:09;;;;;;;0.95;0.73;;;;;;;26.92;45.13;99992.84;4958195;28;97175;-76
2023/08/02 01:13:42;;;;;;;1.10;0.77;;;;;;;26.91;45.25;99985.66;4939260;28;100329;-76
2023/08/02 01:16:10;;;;;;;0.77;0.65;;;;;;;26.90;45.11;99984.84;4946965;28;100126;-76
2023/08/02 01:18:37;;;;;;;1.48;0.70;;;;;;;26.90;45.29;99987.59;4943292;28;96863;-76
2023/08/02 01:21:04;;;;;;;1.65;0.65;;;;;;;26.90;45.17;99978.47;4950349;28;97689;-76
2023/08/02 01:23:31;;;;;;;0.60;0.50;;;;;;;26.89;45.06;99980.41;4945043;28;97325;-76
2023/08/02 01:26:00;;;;;;;0.93;0.60;;;;;;;26.90;45.13;99990.34;4950759;28;97339;-76
2023/08/02 01:28:32;;;;;;;0.98;0.57;;;;;;;26.90;45.06;99993.09;4964056;28;96777;-76
2023/08/02 01:31:00;;;;;;;0.90;0.60;;;;;;;26.91;45.08;99985.66;4963861;28;97249;-76
2023/08/02 01:33:28;;;;;;;1.08;0.65;;;;;;;26.90;44.95;99981.25;4945820;28;96806;-76
2023/08/02 01:35:54;;;;;;;1.15;0.70;;;;;;;26.90;45.22;99986.75;4952474;28;98559;-76
2023/08/02 01:38:21;;;;;;;1.30;0.65;;;;;;;26.90;44.71;99979.31;4967740;28;96680;-76
2023/08/02 01:40:47;;;;;;;1.10;0.55;;;;;;;26.89;45.10;99974.88;4945813;28;96824;-76
2023/08/02 01:43:15;;;;;;;1.17;0.60;;;;;;;26.89;45.12;99990.56;4946693;28;96872;-76
2023/08/02 01:45:42;;;;;;;0.90;0.50;;;;;;;26.89;45.07;99985.06;4945017;28;97996;-76
2023/08/02 01:48:08;;;;;;;0.63;0.40;;;;;;;26.90;45.24;99981.25;4958392;28;98013;-76
2023/08/02 01:50:36;;;;;;;0.80;0.52;;;;;;;26.89;45.44;99969.38;4959946;28;97473;-76
2023/08/02 01:53:03;;;;;;;0.80;0.60;;;;;;;26.88;45.13;99964.94;4952257;28;98822;-76
2023/08/02 01:55:29;;;;;;;1.13;0.60;;;;;;;26.89;45.07;99963.03;4958928;28;98380;-76
2023/08/02 01:57:56;;;;;;;0.75;0.60;;;;;;;26.88;45.07;99956.69;4945125;28;97224;-76
2023/08/02 02:00:23;;;;;;;0.77;0.45;;;;;;;26.89;45.02;99947.34;4946395;28;96870;-76
2023/08/02 02:02:49;;;;;;;1.45;0.75;;;;;;;26.89;45.06;99954.75;4961499;28;99210;-76
2023/08/02 02:05:16;;;;;;;1.77;0.70;;;;;;;26.88;45.09;99933.78;4952919;28;99112;-75
2023/08/02 02:07:43;;;;;;;1.13;0.63;;;;;;;26.89;45.01;99930.81;4946425;28;97379;-76
2023/08/02 02:10:10;;;;;;;1.25;0.70;;;;;;;26.88;45.04;99939.31;4949640;28;97051;-76
2023/08/02 02:12:37;;;;;;;1.20;0.80;;;;;;;26.88;45.02;99928.28;4933761;28;96819;-76
2023/08/02 02:15:04;;;;;;;1.02;0.63;;;;;;;26.88;45.03;99922.78;4949068;28;96721;-76
2023/08/02 02:17:31;;;;;;;1.15;0.57;;;;;;;26.87;45.32;99919.19;4962366;28;96801;-76
2023/08/02 02:19:58;;;;;;;0.85;0.60;;;;;;;26.87;45.10;99908.16;4946310;28;97743;-76
2023/08/02 02:22:24;;;;;;;1.00;0.68;;;;;;;26.87;44.99;99905.41;4945465;28;98863;-76
2023/08/02 02:24:51;;;;;;;0.85;0.57;;;;;;;26.87;45.13;99893.53;4966624;28;99814;-76
2023/08/02 02:27:18;;;;;;;1.30;0.80;;;;;;;26.87;44.81;99883.38;4947612;28;97055;-76
2023/08/02 02:29:46;;;;;;;0.80;0.60;;;;;;;26.86;45.08;99881.69;4956560;28;97643;-76
2023/08/02 02:32:13;;;;;;;0.80;0.60;;;;;;;26.87;45.05;99885.28;4933295;28;96780;-76
2023/08/02 02:34:39;;;;;;;1.02;0.60;;;;;;;26.86;45.31;99875.34;4944406;28;97009;-76
2023/08/02 02:37:06;;;;;;;0.88;0.60;;;;;;;26.86;45.10;99876.19;4945354;28;97242;-76
2023/08/02 02:39:33;;;;;;;0.98;0.63;;;;;;;26.86;45.07;99862.41;4937656;28;96871;-76
2023/08/02 02:41:59;;;;;;;1.33;0.80;;;;;;;26.86;45.16;99850.53;4960681;28;99632;-76
2023/08/02 02:44:43;;;;;;;1.23;0.55;;;;;;;26.86;45.03;99854.13;4929663;28;99366;-76
2023/08/02 02:47:10;;;;;;;1.17;0.65;;;;;;;26.85;45.06;99860.72;4943807;28;96779;-76
2023/08/02 02:49:38;;;;;;;1.35;0.50;;;;;;;26.86;44.92;99853.28;4941472;28;97213;-76
2023/08/02 02:52:05;;;;;;;1.08;0.70;;;;;;;26.85;44.91;99851.63;4963935;28;98592;-76
2023/08/02 02:54:31;;;;;;;1.13;0.60;;;;;;;26.85;44.88;99837.84;4947494;28;97672;-76
2023/08/02 02:56:58;;;;;;;1.10;0.60;;;;;;;26.84;44.97;99837.00;4938922;28;97284;-76
2023/08/02 02:59:27;;;;;;;0.65;0.47;;;;;;;26.84;44.87;99839.75;4960179;28;97179;-76
2023/08/02 03:01:53;;;;;;;0.98;0.57;;;;;;;26.84;45.03;99845.28;4938219;28;96713;-76
2023/08/02 03:04:20;;;;;;;0.80;0.50;;;;;;;26.84;45.03;99842.50;4941249;28;97695;-76
2023/08/02 03:06:47;;;;;;;0.70;0.50;;;;;;;26.84;44.99;99841.69;4943058;28;97312;-76
2023/08/02 03:09:13;;;;;;;0.95;0.70;;;;;;;26.84;44.96;99827.91;4963684;28;96931;-76
2023/08/02 03:11:40;;;;;;;0.93;0.70;;;;;;;26.84;45.01;99819.63;4944043;28;97190;-77
2023/08/02 03:14:06;;;;;;;0.98;0.50;;;;;;;26.83;45.23;99821.56;4941775;28;97579;-76
2023/08/02 03:16:33;;;;;;;1.10;0.68;;;;;;;26.84;44.94;99823.22;4943456;28;96606;-76
2023/08/02 03:19:00;;;;;;;0.90;0.60;;;;;;;26.85;45.00;99813.03;4942579;28;96925;-76
2023/08/02 03:21:26;;;;;;;1.10;0.70;;;;;;;26.84;44.87;99800.34;4952741;28;97566;-77
2023/08/02 03:23:53;;;;;;;1.13;0.55;;;;;;;26.83;45.09;99790.41;4945190;28;96886;-76
2023/08/02 03:26:19;;;;;;;1.15;0.65;;;;;;;26.83;45.10;99782.97;4959291;28;97044;-76
2023/08/02 03:28:46;;;;;;;0.70;0.40;;;;;;;26.82;45.28;99781.31;4942272;28;96709;-76
2023/08/02 03:31:12;;;;;;;0.80;0.50;;;;;;;26.83;45.05;99773.88;4935834;28;99310;-76
2023/08/02 03:33:39;;;;;;;0.68;0.50;;;;;;;26.82;44.88;99764.78;4963520;28;96891;-76
2023/08/02 03:36:05;;;;;;;0.77;0.60;;;;;;;26.83;45.03;99757.34;4940655;28;98367;-76
2023/08/02 03:38:32;;;;;;;0.70;0.50;;;;;;;26.83;45.04;99754.59;4944368;28;96848;-76
2023/08/02 03:40:59;;;;;;;1.00;0.60;;;;;;;26.83;45.03;99757.34;4938922;28;97624;-76
2023/08/02 03:43:25;;;;;;;1.10;0.60;;;;;;;26.82;45.03;99748.25;4950250;28;96644;-76
2023/08/02 03:45:52;;;;;;;1.50;0.63;;;;;;;26.82;44.89;99755.69;4940907;28;96690;-76
2023/08/02 03:48:18;;;;;;;0.80;0.70;;;;;;;26.81;45.14;99741.06;4941556;28;96791;-76
2023/08/02 03:50:45;;;;;;;0.80;0.43;;;;;;;26.82;45.18;99736.38;4945089;28;98020;-76
2023/08/02 03:53:12;;;;;;;0.82;0.60;;;;;;;26.82;45.04;99736.38;4947977;28;99503;-76
2023/08/02 03:55:39;;;;;;;1.27;0.60;;;;;;;26.82;45.02;99736.38;4947655;28;96713;-76
2023/08/02 03:58:05;;;;;;;0.60;0.50;;;;;;;26.82;44.77;99733.63;4963372;28;96862;-76
2023/08/02 04:00:32;;;;;;;1.15;0.70;;;;;;;26.82;44.89;99733.63;4942769;28;97865;-76
2023/08/02 04:03:00;;;;;;;0.63;0.50;;;;;;;26.81;45.02;99721.78;4939589;28;100247;-76
2023/08/02 04:05:26;;;;;;;1.67;0.75;;;;;;;26.81;44.87;99723.69;4944501;28;98152;-77
2023/08/02 04:07:53;;;;;;;0.85;0.70;;;;;;;26.81;45.05;99696.16;4939002;28;97261;-76
2023/08/02 04:10:19;;;;;;;0.73;0.60;;;;;;;26.81;45.08;99701.66;4951348;28;97761;-76
2023/08/02 04:12:46;;;;;;;0.57;0.50;;;;;;;26.81;44.92;99704.41;4945968;28;97307;-76
2023/08/02 04:15:12;;;;;;;0.75;0.57;;;;;;;26.80;44.51;99700.81;4955226;28;96618;-76
2023/08/02 04:17:39;;;;;;;0.85;0.50;;;;;;;26.79;44.80;99696.38;4948027;28;97227;-76
2023/08/02 04:20:06;;;;;;;0.98;0.60;;;;;;;26.80;44.90;99695.31;4945509;28;99736;-76
2023/08/02 04:22:33;;;;;;;0.82;0.63;;;;;;;26.80;45.06;99686.22;4948468;28;98795;-76
2023/08/02 04:24:59;;;;;;;0.60;0.50;;;;;;;26.80;45.17;99683.47;4946281;28;96771;-76
2023/08/02 04:27:26;;;;;;;0.98;0.60;;;;;;;26.80;45.07;99666.94;4962272;28;96674;-76
2023/08/02 04:29:52;;;;;;;0.50;0.50;;;;;;;26.79;44.97;99651.47;4950770;28;97806;-76
2023/08/02 04:32:19;;;;;;;1.35;0.70;;;;;;;26.79;45.17;99646.81;4949147;28;97077;-76
2023/08/02 04:34:46;;;;;;;0.50;0.40;;;;;;;26.79;45.02;99648.72;4950307;28;96396;-76
2023/08/02 04:37:12;;;;;;;0.73;0.57;;;;;;;26.79;44.90;99637.72;4944542;28;96863;-76
2023/08/02 04:39:39;;;;;;;0.80;0.57;;;;;;;26.79;44.94;99629.44;4932866;28;96902;-76
2023/08/02 04:42:05;;;;;;;1.02;0.57;;;;;;;26.78;44.89;99623.09;4963565;28;96790;-76
2023/08/02 04:44:32;;;;;;;0.82;0.60;;;;;;;26.79;44.85;99623.94;4946171;28;96658;-76
2023/08/02 04:46:59;;;;;;;0.75;0.60;;;;;;;26.79;45.13;99607.41;4947547;28;96785;-76
2023/08/02 04:49:25;;;;;;;1.10;0.60;;;;;;;26.79;44.93;99599.13;4959361;28;99236;-76
2023/08/02 04:51:52;;;;;;;1.00;0.60;;;;;;;26.78;45.02;99592.78;4943935;28;96866;-76
2023/08/02 04:54:18;;;;;;;0.82;0.52;;;;;;;26.79;45.01;99593.63;4958176;28;96829;-76
2023/08/02 04:56:45;;;;;;;1.10;0.70;;;;;;;26.78;44.82;99591.97;4945659;28;96790;-76
2023/08/02 04:59:13;;;;;;;0.75;0.52;;;;;;;26.78;44.96;99591.97;4941003;28;97393;-77
2023/08/02 05:01:40;;;;;;;1.33;0.70;;;;;;;26.77;44.97;99580.09;4948852;28;97606;-76
2023/08/02 05:04:08;;;;;;;0.93;0.60;;;;;;;26.77;44.44;99560.81;4930831;28;96881;-76
2023/08/02 05:06:35;;;;;;;1.33;0.43;;;;;;;26.78;44.98;99567.16;4945445;28;96972;-76
2023/08/02 05:09:04;;;;;;;0.73;0.40;;;;;;;26.77;44.92;99560.81;4952424;28;96838;-76
2023/08/02 05:11:31;;;;;;;0.93;0.68;;;;;;;26.77;44.79;99554.47;4953107;28;96851;-76
2023/08/02 05:13:58;;;;;;;0.60;0.50;;;;;;;26.77;44.90;99551.72;4947812;28;96829;-76
2023/08/02 05:16:26;;;;;;;0.73;0.50;;;;;;;26.76;44.84;99545.38;4951772;28;96875;-76
2023/08/02 05:18:53;;;;;;;0.80;0.50;;;;;;;26.76;44.69;99534.38;4951560;28;97304;-76
2023/08/02 05:21:19;;;;;;;0.65;0.40;;;;;;;26.77;45.01;99532.44;4945213;28;97871;-76
2023/08/02 05:23:46;;;;;;;0.77;0.50;;;;;;;26.77;44.94;99532.44;4948893;28;96685;-76
2023/08/02 05:26:13;;;;;;;0.85;0.45;;;;;;;26.76;44.88;99526.09;4959227;28;96537;-76
2023/08/02 05:28:39;;;;;;;1.20;0.63;;;;;;;26.76;44.85;99533.53;4933511;28;97059;-76
2023/08/02 05:31:11;;;;;;;1.27;0.80;;;;;;;26.76;44.78;99528.84;4943179;28;99374;-76
2023/08/02 05:33:38;;;;;;;0.75;0.60;;;;;;;26.76;44.85;99515.06;4950539;28;97178;-76
2023/08/02 05:36:05;;;;;;;0.60;0.47;;;;;;;26.76;44.96;99505.97;4962418;28;97092;-76
2023/08/02 05:38:35;;;;;;;0.60;0.40;;;;;;;26.76;44.74;99506.81;4951444;28;96796;-77
2023/08/02 05:41:03;;;;;;;0.60;0.45;;;;;;;26.75;45.08;99501.53;4943825;28;97804;-76
2023/08/02 05:43:30;;;;;;;0.70;0.45;;;;;;;26.75;44.99;99493.25;4947773;28;97357;-77
2023/08/02 05:45:57;;;;;;;0.77;0.45;;;;;;;26.74;44.93;99492.44;4965900;28;96864;-76
2023/08/02 05:48:23;;;;;;;0.73;0.47;;;;;;;26.75;44.71;99494.09;4960705;28;98287;-76
2023/08/02 05:50:50;;;;;;;1.05;0.65;;;;;;;26.74;44.84;99481.41;4953204;28;97529;-76
2023/08/02 05:53:17;;;;;;;0.50;0.47;;;;;;;26.74;44.92;99481.41;4936999;28;96757;-76
2023/08/02 05:55:43;;;;;;;1.15;0.50;;;;;;;26.75;44.75;99476.72;4945303;28;97964;-76
2023/08/02 05:58:11;;;;;;;0.82;0.63;;;;;;;26.74;44.80;99462.13;4940493;28;97692;-76
2023/08/02 06:00:37;;;;;;;0.40;0.32;;;;;;;26.74;44.76;99447.53;4943066;28;96684;-76
2023/08/02 06:03:04;;;;;;;0.65;0.57;;;;;;;26.74;44.79;99447.53;4946024;28;97088;-76
2023/08/02 06:05:30;;;;;;;1.05;0.40;;;;;;;26.74;44.88;99439.25;4958285;28;97138;-76
2023/08/02 06:07:57;;;;;;;1.25;0.40;;;;;;;26.74;44.95;99437.34;4951253;28;96900;-76
2023/08/02 06:10:24;;;;;;;0.50;0.32;;;;;;;26.74;45.13;99442.00;4942883;28;96841;-76
2023/08/02 06:12:50;;;;;;;0.80;0.50;;;;;;;26.75;44.84;99435.41;4945031;28;96698;-76
2023/08/02 06:15:17;;;;;;;0.68;0.50;;;;;;;26.74;44.84;99422.72;4947752;28;96771;-76
2023/08/02 06:17:43;;;;;;;0.82;0.55;;;;;;;26.74;44.74;99408.97;4959733;28;96879;-76
2023/08/02 06:20:10;;;;;;;0.98;0.68;;;;;;;26.73;44.90;99407.28;4932283;28;96841;-76
2023/08/02 06:22:37;;;;;;;0.85;0.52;;;;;;;26.73;44.99;99397.09;4943341;28;97366;-76
2023/08/02 06:25:04;;;;;;;0.50;0.40;;;;;;;26.73;44.79;99379.75;4946356;28;97318;-76
2023/08/02 06:27:30;;;;;;;1.00;0.70;;;;;;;26.72;44.85;99370.66;4949724;28;97254;-76
2023/08/02 06:29:57;;;;;;;1.02;0.60;;;;;;;26.73;44.81;99375.06;4947886;28;96792;-76
2023/08/02 06:32:23;;;;;;;0.60;0.50;;;;;;;26.73;44.83;99360.47;4944498;28;96663;-76
2023/08/02 06:34:50;;;;;;;1.05;0.60;;;;;;;26.73;44.81;99366.81;4947334;28;97449;-75
2023/08/02 06:37:16;;;;;;;0.70;0.50;;;;;;;26.73;44.92;99357.72;4949131;28;97899;-76
2023/08/02 06:39:43;;;;;;;0.75;0.50;;;;;;;26.73;44.63;99347.53;4948149;28;97191;-76
2023/08/02 06:42:10;;;;;;;0.80;0.50;;;;;;;26.73;44.80;99341.19;4949317;28;97365;-76
2023/08/02 06:44:36;;;;;;;0.80;0.60;;;;;;;26.73;44.39;99327.41;4945688;28;96824;-75
2023/08/02 06:47:03;;;;;;;0.70;0.52;;;;;;;26.73;44.68;99330.19;4948935;28;96969;-75
2023/08/02 06:49:33;;;;;;;0.70;0.50;;;;;;;26.73;44.86;99332.94;4942792;28;97013;-75
2023/08/02 06:51:59;;;;;;;0.70;0.40;;;;;;;26.72;44.94;99310.06;4947275;28;96811;-76
2023/08/02 06:54:26;;;;;;;0.68;0.40;;;;;;;26.72;44.92;99315.56;4955857;28;96856;-76
2023/08/02 06:56:53;;;;;;;0.60;0.40;;;;;;;26.72;45.08;99314.72;4933977;28;98034;-76
2023/08/02 06:59:19;;;;;;;0.80;0.52;;;;;;;26.71;44.76;99302.06;4950378;28;97447;-76
2023/08/02 07:01:49;;;;;;;0.55;0.40;;;;;;;26.71;44.75;99291.88;4941285;28;97394;-76
2023/08/02 07:04:16;;;;;;;0.73;0.50;;;;;;;26.71;44.94;99269.84;4958335;28;96948;-75
2023/08/02 07:06:43;;;;;;;0.40;0.30;;;;;;;26.72;44.51;99273.41;4950713;28;96908;-75
2023/08/02 07:09:09;;;;;;;0.68;0.45;;;;;;;26.71;44.87;99249.72;4941405;28;96605;-75
2023/08/02 07:11:36;;;;;;;0.70;0.50;;;;;;;26.71;44.87;99250.56;4941451;28;97087;-75
2023/08/02 07:14:03;;;;;;;1.05;0.77;;;;;;;26.71;44.65;99238.72;4962049;28;96729;-75
2023/08/02 07:16:30;;;;;;;0.75;0.47;;;;;;;26.70;44.65;99229.63;4943617;28;97260;-76
2023/08/02 07:18:56;;;;;;;0.93;0.50;;;;;;;26.70;44.72;99229.63;4944772;28;97388;-76
2023/08/02 07:21:23;;;;;;;0.60;0.40;;;;;;;26.71;44.77;99223.00;4936818;28;97374;-76
2023/08/02 07:23:49;;;;;;;0.80;0.50;;;;;;;26.70;44.96;99218.59;4954098;28;97167;-75
2023/08/02 07:26:16;;;;;;;1.23;0.60;;;;;;;26.70;44.75;99215.84;4957390;28;97971;-75
2023/08/02 07:28:44;;;;;;;0.68;0.50;;;;;;;26.70;44.59;99204.81;4933744;28;96850;-75
2023/08/02 07:31:12;;;;;;;1.35;0.50;;;;;;;26.71;44.82;99200.16;4939383;28;96776;-74
2023/08/02 07:33:39;;;;;;;0.80;0.50;;;;;;;26.70;44.80;99201.25;4943993;28;96576;-75
2023/08/02 07:36:13;;;;;;;1.05;0.57;;;;;;;26.70;44.74;99199.31;4944492;28;96796;-76
2023/08/02 07:38:40;;;;;;;0.95;0.50;;;;;;;26.68;44.85;99182.22;4943302;28;98713;-76
2023/08/02 07:41:07;;;;;;;0.95;0.60;;;;;;;26.70;44.70;99190.22;4952584;28;96969;-76
2023/08/02 07:43:33;;;;;;;0.80;0.57;;;;;;;26.70;44.83;99187.47;4948205;28;96891;-75
2023/08/02 07:46:00;;;;;;;0.50;0.40;;;;;;;26.69;44.70;99183.03;4946355;28;96746;-76
2023/08/02 07:48:27;;;;;;;0.80;0.50;;;;;;;26.69;44.90;99185.81;4942738;28;97414;-75
2023/08/02 07:50:53;;;;;;;0.65;0.52;;;;;;;26.69;45.11;99183.03;4946548;28;97375;-76
2023/08/02 07:53:20;;;;;;;0.75;0.60;;;;;;;26.69;44.96;99175.63;4956918;28;96772;-76
2023/08/02 07:55:48;;;;;;;0.50;0.40;;;;;;;26.69;44.70;99167.34;4945922;28;96811;-75
2023/08/02 07:58:16;;;;;;;0.50;0.40;;;;;;;26.69;44.71;99164.59;4950728;28;99074;-75
2023/08/02 08:00:42;;;;;;;1.15;0.50;;;;;;;26.69;44.80;99161.84;4945718;28;97374;-75
2023/08/02 08:03:09;;;;;;;0.60;0.40;;;;;;;26.70;44.75;99151.66;4960329;28;96867;-75
2023/08/02 08:05:36;;;;;;;0.68;0.50;;;;;;;26.69;44.64;99141.75;4941090;28;97255;-75
2023/08/02 08:08:02;;;;;;;1.23;0.57;;;;;;;26.68;44.89;99132.66;4942940;28;96815;-76
2023/08/02 08:10:29;;;;;;;1.10;0.60;;;;;;;26.68;44.71;99146.41;4943437;28;96822;-75
2023/08/02 08:12:55;;;;;;;0.45;0.45;;;;;;;26.68;44.65;99132.66;4946093;28;96919;-75
2023/08/02 08:15:22;;;;;;;1.33;0.45;;;;;;;26.69;44.66;99136.22;4939607;28;96934;-75
2023/08/02 08:17:49;;;;;;;0.60;0.40;;;;;;;26.68;44.73;99123.56;4943662;28;96763;-75
2023/08/02 08:20:18;;;;;;;0.60;0.40;;;;;;;26.67;44.83;99117.22;4946748;28;97261;-76
2023/08/02 08:22:47;;;;;;;0.63;0.50;;;;;;;26.67;44.95;99111.69;4941922;28;96906;-75
2023/08/02 08:25:13;;;;;;;0.85;0.57;;;;;;;26.65;44.63;99113.03;4943375;28;100134;-76
2023/08/02 08:27:40;;;;;;;0.80;0.40;;;;;;;26.65;44.63;99099.28;4948828;28;97360;-76
2023/08/02 08:30:07;;;;;;;0.55;0.40;;;;;;;26.65;44.75;99091.84;4949160;28;97373;-75
2023/08/02 08:32:34;;;;;;;0.65;0.40;;;;;;;26.64;44.91;99084.69;4939300;28;96853;-75
2023/08/02 08:35:01;;;;;;;0.50;0.40;;;;;;;26.64;44.86;99084.69;4939818;28;96883;-75
2023/08/02 08:37:28;;;;;;;1.05;0.55;;;;;;;26.64;44.67;99078.34;4945086;28;96726;-75
2023/08/02 08:39:55;;;;;;;1.52;0.68;;;;;;;26.65;44.75;99071.75;4953482;28;96524;-76
2023/08/02 08:42:49;;;;;;;;;;;;;;;26.61;44.85;99085.19;4958102;28;96736;-75
2023/08/02 08:45:21;;;;;;;0.63;0.52;;;;;;;26.59;44.83;99077.19;4962647;28;99558;-76
2023/08/02 08:47:49;;;;;;;1.05;0.50;;;;;;;26.60;44.83;99089.88;4957904;28;97641;-76
2023/08/02 08:50:18;;;;;;;1.20;0.60;;;;;;;26.61;44.68;99079.69;4961965;28;96985;-76
2023/08/02 08:52:50;;;;;;;0.75;0.60;;;;;;;26.60;44.88;99075.25;4939590;28;96884;-76
2023/08/02 08:55:18;;;;;;;1.02;0.60;;;;;;;26.60;44.80;99067.84;4942668;28;97759;-75
2023/08/02 08:57:45;;;;;;;0.35;0.30;;;;;;;26.60;44.91;99081.59;4940806;28;96698;-76
2023/08/02 09:00:15;;;;;;;0.85;0.60;;;;;;;26.60;44.99;99076.09;4945318;28;96705;-76
2023/08/02 09:02:43;;;;;;;0.73;0.60;;;;;;;26.59;44.76;99077.19;4937839;28;97223;-75
2023/08/02 09:05:10;;;;;;;0.75;0.50;;;;;;;26.60;44.73;99073.34;4938600;28;99925;-75
2023/08/02 09:07:36;;;;;;;0.60;0.45;;;;;;;26.60;44.76;99067.00;4944033;28;99431;-75
2023/08/02 09:10:03;;;;;;;0.90;0.50;;;;;;;26.60;44.75;99065.09;4940736;28;96851;-76
2023/08/02 09:12:42;;;;;;;1.20;0.50;;;;;;;26.62;44.81;99058.50;4950103;28;96615;-76
2023/08/02 09:15:08;;;;;;;0.75;0.47;;;;;;;26.61;44.92;99054.91;4945377;28;97905;-76
2023/08/02 09:17:45;;;;;;;0.88;0.45;;;;;;;26.62;45.00;99052.97;4967629;28;98229;-75
2023/08/02 09:20:12;;;;;;;0.90;0.60;;;;;;;26.62;44.85;99058.50;4948063;28;96835;-75
2023/08/02 09:22:39;;;;;;;0.77;0.55;;;;;;;26.59;44.94;99052.41;4943427;28;96934;-75
2023/08/02 09:25:10;;;;;;;0.80;0.40;;;;;;;26.61;44.99;99041.13;4931991;28;97933;-76
2023/08/02 09:27:36;;;;;;;0.82;0.57;;;;;;;26.61;44.92;99046.63;4960368;28;96927;-75
2023/08/02 09:30:03;;;;;;;0.50;0.45;;;;;;;26.60;44.77;99037.56;4948532;28;96617;-76
2023/08/02 09:32:30;;;;;;;0.68;0.50;;;;;;;26.63;44.78;99040.88;4940389;28;96847;-76
2023/08/02 09:34:58;;;;;;;0.50;0.50;;;;;;;26.62;44.95;99040.03;4950013;28;98066;-75
2023/08/02 09:37:32;;;;;;;0.80;0.50;;;;;;;26.63;44.88;99029.88;4947428;28;98089;-75
2023/08/02 09:39:59;;;;;;;0.82;0.60;;;;;;;26.62;44.70;99029.03;4945581;28;97960;-75
2023/08/02 09:42:27;;;;;;;0.85;0.60;;;;;;;26.63;44.64;99024.34;4960330;28;96887;-75
2023/08/02 09:45:04;;;;;;;0.80;0.60;;;;;;;26.63;44.88;99018.84;4957643;28;100324;-76
2023/08/02 09:47:30;;;;;;;0.85;0.57;;;;;;;26.62;44.95;99015.25;4945036;28;96803;-76
2023/08/02 09:50:04;;;;;;;0.90;0.50;;;;;;;26.63;44.90;99008.66;4947432;28;96990;-76
2023/08/02 09:52:31;;;;;;;0.68;0.45;;;;;;;26.63;44.72;99019.69;4945199;28;96797;-76
2023/08/02 09:54:58;;;;;;;0.57;0.43;;;;;;;26.63;44.83;99005.09;4949274;28;96807;-76
2023/08/02 09:57:27;;;;;;;0.70;0.43;;;;;;;26.65;44.82;99002.91;4959437;28;97477;-75
2023/08/02 09:59:58;;;;;;;0.90;0.60;;;;;;;26.64;44.61;99004.00;4941181;28;96675;-76
2023/08/02 10:02:25;;;;;;;0.70;0.47;;;;;;;26.65;44.90;98991.88;4946433;28;96806;-76
2023/08/02 10:04:57;;;;;;;1.00;0.60;;;;;;;26.65;44.72;98978.13;4946748;28;98711;-76
2023/08/02 10:07:46;;;;;;;0.85;0.63;;;;;;;26.65;44.77;98975.38;4962611;28;96852;-76
2023/08/02 10:10:23;;;;;;;0.52;0.40;;;;;;;26.65;44.50;98980.88;4947506;28;96539;-76
2023/08/02 10:13:01;;;;;;;1.23;0.57;;;;;;;26.66;44.83;98985.28;4941473;28;97379;-76
2023/08/02 10:15:28;;;;;;;0.60;0.60;;;;;;;26.63;44.81;98981.13;4945440;28;97502;-76
2023/08/02 10:17:55;;;;;;;1.80;0.50;;;;;;;26.65;44.86;98980.88;4944915;28;96763;-76
2023/08/02 10:20:23;;;;;;;0.60;0.43;;;;;;;26.65;44.85;98975.38;4948904;28;96680;-76
2023/08/02 10:22:51;;;;;;;0.65;0.47;;;;;;;26.65;45.00;98989.13;4939026;28;96670;-76
2023/08/02 10:25:19;;;;;;;0.90;0.50;;;;;;;26.64;44.51;98985.56;4949459;28;97722;-76
2023/08/02 10:27:46;;;;;;;0.88;0.57;;;;;;;26.64;44.83;98985.56;4950429;28;96707;-76
2023/08/02 10:30:13;;;;;;;0.90;0.50;;;;;;;26.64;44.85;98973.72;4934496;28;97128;-76
2023/08/02 10:32:39;;;;;;;0.90;0.50;;;;;;;26.64;44.79;98970.94;4941495;28;97038;-76
2023/08/02 10:35:06;;;;;;;0.80;0.50;;;;;;;26.65;44.78;98961.59;4944331;28;97623;-75
2023/08/02 10:37:54;;;;;;;0.70;0.50;;;;;;;26.67;44.68;98948.41;4944808;28;100191;-76
2023/08/02 10:40:21;;;;;;;0.75;0.52;;;;;;;26.63;44.97;98920.56;4952074;28;96708;-76
2023/08/02 10:43:02;;;;;;;0.70;0.50;;;;;;;26.65;44.90;98912.03;4948794;28;96847;-76
2023/08/02 10:45:28;;;;;;;0.80;0.50;;;;;;;26.65;44.83;98912.88;4941565;28;99971;-76
2023/08/02 10:48:25;;;;;;;0.60;0.40;;;;;;;26.67;44.72;98909.84;4951550;28;96756;-76
2023/08/02 10:50:53;;;;;;;0.98;0.50;;;;;;;26.65;44.79;98920.28;4952831;28;97842;-76
2023/08/02 10:53:19;;;;;;;0.65;0.35;;;;;;;26.65;44.77;98923.06;4955594;28;96610;-77
2023/08/02 10:56:10;;;;;;;0.70;0.70;;;;;;;26.65;44.96;98923.88;4947165;28;97771;-76
2023/08/02 10:58:51;;;;;;;0.57;0.47;;;;;;;26.65;44.86;98912.88;4943160;28;97352;-77
2023/08/02 11:01:18;;;;;;;0.50;0.40;;;;;;;26.65;44.97;98923.06;4951094;28;96959;-77
2023/08/02 11:03:45;;;;;;;0.73;0.50;;;;;;;26.65;44.71;98912.88;4949545;28;96795;-77
2023/08/02 11:06:26;;;;;;;0.77;0.50;;;;;;;26.67;44.65;98923.63;4940987;28;98911;-77
2023/08/02 11:08:53;;;;;;;0.70;0.50;;;;;;;26.64;44.89;98897.44;4957579;28;97883;-77
2023/08/02 11:11:31;;;;;;;0.90;0.57;;;;;;;26.67;45.13;98898.84;4939811;28;96898;-76
2023/08/02 11:13:58;;;;;;;0.98;0.50;;;;;;;26.65;44.95;98893.59;4944526;28;97100;-77
2023/08/02 11:16:26;;;;;;;0.57;0.40;;;;;;;26.65;44.78;98874.31;4955422;28;96815;-77
2023/08/02 11:19:01;;;;;;;1.70;0.45;;;;;;;26.65;44.68;98871.56;4955649;28;97196;-76
2023/08/02 11:21:28;;;;;;;0.88;0.60;;;;;;;26.65;44.85;98871.56;4940258;28;96885;-76
2023/08/02 11:24:00;;;;;;;0.60;0.40;;;;;;;26.65;44.90;98866.06;4943598;28;96736;-76
2023/08/02 11:26:27;;;;;;;0.70;0.50;;;;;;;26.65;45.00;98857.78;4946565;28;99100;-76
2023/08/02 11:29:14;;;;;;;0.63;0.52;;;;;;;26.64;45.17;98860.81;4947320;28;97038;-77
2023/08/02 11:31:41;;;;;;;0.70;0.50;;;;;;;26.65;44.89;98856.97;4940621;28;96757;-76
2023/08/02 11:34:18;;;;;;;0.63;0.45;;;;;;;26.65;44.95;98844.03;4943060;28;97776;-77
2023/08/02 11:36:48;;;;;;;1.30;0.50;;;;;;;26.65;44.83;98840.44;4942653;28;97664;-77